createdAt,value
2022-09-28T00:01:15.960Z,98248.06
2022-09-28T00:03:43.853Z,98241.53
2022-09-28T00:06:14.340Z,98235.72
2022-09-28T00:08:41.939Z,98230.63
2022-09-28T00:11:13.700Z,98223.31
2022-09-28T00:13:42.794Z,98222.59
2022-09-28T00:16:14.083Z,98217.00
2022-09-28T00:18:41.949Z,98207.25
2022-09-28T00:21:12.308Z,98204.69
2022-09-28T00:24:00.577Z,98191.69
2022-09-28T00:26:31.007Z,98190.41
2022-09-28T00:29:00.804Z,98187.25
2022-09-28T00:31:31.653Z,98179.84
2022-09-28T00:34:00.618Z,98172.53
2022-09-28T00:36:29.195Z,98181.16
2022-09-28T00:38:57.343Z,98172.09
2022-09-28T00:41:26.273Z,98178.25
2022-09-28T00:44:33.563Z,98174.63
2022-09-28T00:47:05.075Z,98165.47
2022-09-28T00:49:40.663Z,98161.53
2022-09-28T00:52:11.901Z,98154.19
2022-09-28T00:54:40.407Z,98142.88
2022-09-28T00:57:08.052Z,98136.63
2022-09-28T00:59:37.002Z,98138.97
2022-09-28T01:02:04.861Z,98133.56
2022-09-28T01:04:32.923Z,98128.78
2022-09-28T01:07:01.466Z,98117.06
2022-09-28T01:09:31.355Z,98105.63
2022-09-28T01:11:58.979Z,98108.69
2022-09-28T01:14:26.906Z,98103.44
2022-09-28T01:17:05.661Z,98095.22
2022-09-28T01:19:59.697Z,98086.16
2022-09-28T01:22:53.006Z,98084.44
2022-09-28T01:25:34.183Z,98088.19
2022-09-28T01:28:06.922Z,98085.63
2022-09-28T01:30:42.226Z,98070.16
2022-09-28T01:33:14.318Z,98078.91
2022-09-28T01:35:48.612Z,98073.91
2022-09-28T01:38:20.405Z,98075.84
2022-09-28T01:40:50.081Z,98070.63
2022-09-28T01:43:23.823Z,98069.28
2022-09-28T01:45:55.872Z,98065.03
2022-09-28T01:48:30.346Z,98059.22
2022-09-28T01:51:02.924Z,98058.78
2022-09-28T01:53:37.868Z,98048.25
2022-09-28T01:56:10.005Z,98050.00
2022-09-28T01:58:45.009Z,98041.72
2022-09-28T02:01:18.351Z,98036.75
2022-09-28T02:03:52.056Z,98037.34
2022-09-28T02:06:26.642Z,98032.69
2022-09-28T02:08:58.125Z,98028.31
2022-09-28T02:11:26.079Z,98029.72
2022-09-28T02:14:00.388Z,98030.41
2022-09-28T02:16:35.650Z,98024.09
2022-09-28T02:19:04.900Z,98025.97
2022-09-28T02:21:38.159Z,98018.69
2022-09-28T02:24:21.633Z,98016.47
2022-09-28T02:26:52.180Z,98043.97
2022-09-28T02:29:21.175Z,98044.56
2022-09-28T02:31:48.766Z,98048.06
2022-09-28T02:34:16.418Z,98042.25
2022-09-28T02:36:45.585Z,98041.44
2022-09-28T02:39:15.188Z,98039.16
2022-09-28T02:41:56.401Z,98037.38
2022-09-28T02:44:50.488Z,98027.25
2022-09-28T02:47:28.122Z,98030.50
2022-09-28T02:50:04.686Z,98033.47
2022-09-28T02:52:54.668Z,98028.38
2022-09-28T02:55:37.452Z,98013.56
2022-09-28T02:58:20.425Z,98019.38
2022-09-28T03:00:58.468Z,98016.75
2022-09-28T03:03:35.375Z,98010.41
2022-09-28T03:06:08.698Z,98017.19
2022-09-28T03:08:40.763Z,98011.72
2022-09-28T03:11:13.807Z,98013.59
2022-09-28T03:13:42.486Z,98018.44
2022-09-28T03:16:14.235Z,98019.03
2022-09-28T03:18:42.069Z,98022.69
2022-09-28T03:21:12.341Z,98016.59
2022-09-28T03:23:40.376Z,98019.94
2022-09-28T03:26:08.651Z,98013.91
2022-09-28T03:28:36.793Z,98013.44
2022-09-28T03:31:04.467Z,98015.13
2022-09-28T03:33:33.485Z,98021.78
2022-09-28T03:36:01.285Z,98026.16
2022-09-28T03:38:31.253Z,98020.75
2022-09-28T03:41:00.418Z,98018.53
2022-09-28T03:43:29.043Z,98022.75
2022-09-28T03:45:58.317Z,98022.44
2022-09-28T03:48:31.927Z,98017.56
2022-09-28T03:51:02.742Z,98019.50
2022-09-28T03:53:30.585Z,98008.72
2022-09-28T03:56:03.781Z,98008.72
2022-09-28T03:58:31.352Z,98011.56
2022-09-28T04:01:03.490Z,98011.47
2022-09-28T04:03:31.293Z,98005.31
2022-09-28T04:05:59.361Z,98010.19
2022-09-28T04:08:28.629Z,98015.22
2022-09-28T04:10:57.486Z,98019.53
2022-09-28T04:13:25.432Z,98020.25
2022-09-28T04:15:54.576Z,98022.28
2022-09-28T04:18:22.710Z,98023.09
2022-09-28T04:20:59.409Z,98021.53
2022-09-28T04:23:28.675Z,98016.28
2022-09-28T04:25:56.319Z,98022.84
2022-09-28T04:28:41.428Z,98020.81
2022-09-28T04:31:11.164Z,98013.28
2022-09-28T04:33:40.488Z,98028.84
2022-09-28T04:36:09.362Z,98021.94
2022-09-28T04:38:52.302Z,98038.91
2022-09-28T04:41:22.131Z,98032.50
2022-09-28T04:43:49.699Z,98036.09
2022-09-28T04:46:18.785Z,98037.72
2022-09-28T04:48:46.555Z,98042.16
2022-09-28T04:51:14.501Z,98041.59
2022-09-28T04:53:45.860Z,98040.47
2022-09-28T04:56:16.509Z,98043.38
2022-09-28T04:58:47.916Z,98047.31
2022-09-28T05:01:23.416Z,98041.03
2022-09-28T05:03:51.882Z,98041.28
2022-09-28T05:06:19.545Z,98036.28
2022-09-28T05:08:48.622Z,98043.06
2022-09-28T05:11:16.383Z,98051.25
2022-09-28T05:13:45.739Z,98054.97
2022-09-28T05:16:15.795Z,98051.38
2022-09-28T05:18:43.906Z,98052.88
2022-09-28T05:21:12.729Z,98061.25
2022-09-28T05:23:40.414Z,98069.44
2022-09-28T05:26:10.789Z,98062.63
2022-09-28T05:28:39.728Z,98065.13
2022-09-28T05:31:07.709Z,98070.81
2022-09-28T05:33:36.261Z,98065.56
2022-09-28T05:36:05.133Z,98076.09
2022-09-28T05:38:32.738Z,98073.88
2022-09-28T05:41:04.431Z,98082.38
2022-09-28T05:43:36.494Z,98084.75
2022-09-28T05:46:04.193Z,98086.03
2022-09-28T05:48:32.193Z,98083.31
2022-09-28T05:50:59.953Z,98089.22
2022-09-28T05:53:27.521Z,98078.72
2022-09-28T05:55:59.175Z,98077.28
2022-09-28T05:58:26.910Z,98077.59
2022-09-28T06:00:57.214Z,98085.06
2022-09-28T06:03:25.526Z,98087.25
2022-09-28T06:05:53.710Z,98092.16
2022-09-28T06:08:21.561Z,98098.88
2022-09-28T06:10:49.193Z,98096.09
2022-09-28T06:13:16.837Z,98096.75
2022-09-28T06:15:44.767Z,98100.63
2022-09-28T06:18:15.112Z,98100.03
2022-09-28T06:20:43.237Z,98104.06
2022-09-28T06:23:11.830Z,98108.53
2022-09-28T06:25:39.459Z,98112.78
2022-09-28T06:28:10.109Z,98114.31
2022-09-28T06:30:40.407Z,98113.34
2022-09-28T06:33:10.793Z,98123.50
2022-09-28T06:35:40.805Z,98120.56
2022-09-28T06:38:08.524Z,98123.03
2022-09-28T06:40:36.956Z,98123.44
2022-09-28T06:43:10.169Z,98128.94
2022-09-28T06:45:39.015Z,98139.72
2022-09-28T06:48:07.704Z,98128.00
2022-09-28T06:50:38.439Z,98133.53
2022-09-28T06:53:09.463Z,98137.19
2022-09-28T06:55:40.123Z,98139.59
2022-09-28T06:58:10.665Z,98151.53
2022-09-28T07:00:39.394Z,98151.13
2022-09-28T07:03:08.560Z,98155.53
2022-09-28T07:05:37.667Z,98160.03
2022-09-28T07:08:06.994Z,98160.59
2022-09-28T07:10:34.825Z,98154.31
2022-09-28T07:13:04.755Z,98170.66
2022-09-28T07:15:32.997Z,98161.59
2022-09-28T07:18:04.377Z,98177.09
2022-09-28T07:20:34.692Z,98171.47
2022-09-28T07:23:18.590Z,98177.75
2022-09-28T07:25:48.731Z,98176.03
2022-09-28T07:28:17.526Z,98177.53
2022-09-28T07:30:45.402Z,98180.63
2022-09-28T07:33:15.849Z,98186.38
2022-09-28T07:35:50.675Z,98182.91
2022-09-28T07:38:19.852Z,98191.59
2022-09-28T07:41:05.506Z,98190.84
2022-09-28T07:43:33.744Z,98196.28
2022-09-28T07:46:01.463Z,98194.63
2022-09-28T07:48:36.699Z,98200.78
2022-09-28T07:51:04.638Z,98207.69
2022-09-28T07:53:33.653Z,98202.44
2022-09-28T07:56:07.281Z,98204.25
2022-09-28T07:58:35.948Z,98205.09
2022-09-28T08:01:06.452Z,98209.72
2022-09-28T08:03:34.885Z,98210.56
2022-09-28T08:06:05.845Z,98213.13
2022-09-28T08:08:35.723Z,98212.06
2022-09-28T08:11:04.009Z,98222.16
2022-09-28T08:13:31.612Z,98225.41
2022-09-28T08:16:02.217Z,98224.03
2022-09-28T08:18:30.712Z,98224.38
2022-09-28T08:21:16.203Z,98231.06
2022-09-28T08:23:45.134Z,98235.47
2022-09-28T08:26:15.615Z,98235.28
2022-09-28T08:28:45.133Z,98234.53
2022-09-28T08:31:12.884Z,98230.53
2022-09-28T08:33:42.010Z,98231.53
2022-09-28T08:36:11.269Z,98237.94
2022-09-28T08:38:38.892Z,98231.25
2022-09-28T08:41:17.846Z,98232.31
2022-09-28T08:44:09.223Z,98224.84
2022-09-28T08:46:39.806Z,98227.81
2022-09-28T08:49:24.938Z,98231.06
2022-09-28T08:52:00.018Z,98234.56
2022-09-28T08:54:37.617Z,98243.44
2022-09-28T08:57:13.552Z,98243.22
2022-09-28T08:59:51.420Z,98232.66
2022-09-28T09:02:25.384Z,98235.13
2022-09-28T09:04:53.867Z,98239.16
2022-09-28T09:07:57.143Z,98241.00
2022-09-28T09:10:44.127Z,98240.72
2022-09-28T09:13:36.801Z,98240.63
2022-09-28T09:16:15.241Z,98246.13
2022-09-28T09:18:49.434Z,98241.53
2022-09-28T09:21:30.621Z,98244.44
2022-09-28T09:24:08.201Z,98247.38
2022-09-28T09:26:39.197Z,98247.97
2022-09-28T09:29:22.169Z,98260.19
2022-09-28T09:32:04.272Z,98243.22
2022-09-28T09:34:44.719Z,98261.38
2022-09-28T09:37:27.549Z,98265.09
2022-09-28T09:40:17.884Z,98256.81
2022-09-28T09:42:58.103Z,98253.75
2022-09-28T09:45:36.876Z,98252.59
2022-09-28T09:48:09.847Z,98254.00
2022-09-28T09:50:46.738Z,98255.13
2022-09-28T09:53:21.123Z,98256.69
2022-09-28T09:55:54.797Z,98253.66
2022-09-28T09:58:28.045Z,98255.09
2022-09-28T10:01:03.228Z,98254.56
2022-09-28T10:03:34.154Z,98254.50
2022-09-28T10:06:06.753Z,98255.38
2022-09-28T10:08:40.773Z,98260.75
2022-09-28T10:11:13.118Z,98252.88
2022-09-28T10:13:41.047Z,98253.16
2022-09-28T10:16:10.809Z,98256.66
2022-09-28T10:18:38.867Z,98258.75
2022-09-28T10:21:06.857Z,98252.63
2022-09-28T10:23:37.689Z,98256.84
2022-09-28T10:26:13.421Z,98262.06
2022-09-28T10:28:46.301Z,98268.16
2022-09-28T10:31:39.457Z,98259.38
2022-09-28T10:34:08.778Z,98263.16
2022-09-28T10:36:49.413Z,98263.66
2022-09-28T10:39:28.711Z,98267.69
2022-09-28T10:41:56.654Z,98271.38
2022-09-28T10:44:24.423Z,98259.63
2022-09-28T10:47:00.379Z,98276.19
2022-09-28T10:49:28.944Z,98279.97
2022-09-28T10:51:57.237Z,98277.81
2022-09-28T10:54:30.330Z,98277.25
2022-09-28T10:56:59.771Z,98276.72
2022-09-28T10:59:39.543Z,98283.22
2022-09-28T11:02:21.885Z,98284.75
2022-09-28T11:04:55.120Z,98278.06
2022-09-28T11:07:26.791Z,98278.06
2022-09-28T11:09:56.198Z,98276.16
2022-09-28T11:12:26.746Z,98290.50
2022-09-28T11:15:01.557Z,98273.22
2022-09-28T11:17:32.795Z,98271.59
2022-09-28T11:20:02.515Z,98257.56
2022-09-28T11:22:41.715Z,98267.28
2022-09-28T11:25:22.225Z,98263.75
2022-09-28T11:28:01.740Z,98264.00
2022-09-28T11:30:33.539Z,98264.22
2022-09-28T11:33:09.184Z,98263.19
2022-09-28T11:35:46.599Z,98261.31
2022-09-28T11:38:40.480Z,98265.56
2022-09-28T11:41:26.033Z,98259.97
2022-09-28T11:44:23.927Z,98259.69
2022-09-28T11:47:04.352Z,98260.25
2022-09-28T11:49:39.960Z,98258.06
2022-09-28T11:52:17.511Z,98261.59
2022-09-28T11:54:51.720Z,98264.00
2022-09-28T11:57:25.079Z,98262.41
2022-09-28T11:59:59.262Z,98266.41
2022-09-28T12:02:31.350Z,98265.84
2022-09-28T12:05:14.917Z,98263.69
2022-09-28T12:07:49.381Z,98258.34
2022-09-28T12:10:27.771Z,98264.25
2022-09-28T12:13:02.337Z,98263.50
2022-09-28T12:16:16.826Z,98264.84
2022-09-28T12:18:44.924Z,98268.81
2022-09-28T12:21:35.712Z,98268.13
2022-09-28T12:24:14.188Z,98264.09
2022-09-28T12:26:48.292Z,98264.63
2022-09-28T12:29:21.804Z,98261.00
2022-09-28T12:31:59.388Z,98265.94
2022-09-28T12:34:27.102Z,98264.56
2022-09-28T12:37:09.214Z,98255.91
2022-09-28T12:39:58.612Z,98260.75
2022-09-28T12:42:42.324Z,98255.38
2022-09-28T12:45:27.657Z,98252.94
2022-09-28T12:48:14.553Z,98254.31
2022-09-28T12:50:56.688Z,98255.38
2022-09-28T12:53:47.459Z,98257.81
2022-09-28T12:56:27.125Z,98257.28
2022-09-28T12:59:09.199Z,98265.84
2022-09-28T13:02:02.376Z,98263.34
2022-09-28T13:04:57.978Z,98266.41
2022-09-28T13:07:34.498Z,98260.88
2022-09-28T13:10:18.462Z,98265.00
2022-09-28T13:13:01.150Z,98268.81
2022-09-28T13:15:38.713Z,98271.50
2022-09-28T13:18:13.576Z,98267.53
2022-09-28T13:20:51.270Z,98270.78
2022-09-28T13:23:22.490Z,98271.31
2022-09-28T13:25:56.103Z,98267.78
2022-09-28T13:28:27.242Z,98268.88
2022-09-28T13:33:34.982Z,98273.19
2022-09-28T13:36:05.555Z,98269.16
2022-09-28T13:38:55.125Z,98266.72
2022-09-28T13:41:31.533Z,98269.16
2022-09-28T13:44:27.456Z,98267.00
2022-09-28T13:47:22.988Z,98260.25
2022-09-28T13:50:04.635Z,98261.84
2022-09-28T13:52:44.894Z,98256.97
2022-09-28T13:55:29.861Z,98260.72
2022-09-28T13:58:04.450Z,98258.00
2022-09-28T14:00:38.913Z,98268.06
2022-09-28T14:03:14.936Z,98269.41
2022-09-28T14:05:47.925Z,98265.94
2022-09-28T14:08:33.547Z,98267.25
2022-09-28T14:11:26.395Z,98267.81
2022-09-28T14:14:02.987Z,98274.81
2022-09-28T14:16:32.566Z,98277.47
2022-09-28T14:19:04.618Z,98272.63
2022-09-28T14:21:58.036Z,98267.69
2022-09-28T14:24:35.344Z,98268.94
2022-09-28T14:27:21.595Z,98264.59
2022-09-28T14:29:56.223Z,98267.59
2022-09-28T14:32:25.592Z,98267.19
2022-09-28T14:34:59.310Z,98265.78
2022-09-28T14:37:47.411Z,98284.16
2022-09-28T14:40:38.196Z,98273.94
2022-09-28T14:43:28.768Z,98278.94
2022-09-28T14:46:36.595Z,98279.53
2022-09-28T14:49:06.506Z,98278.81
2022-09-28T14:52:04.608Z,98283.94
2022-09-28T14:54:54.376Z,98285.53
2022-09-28T14:57:26.327Z,98291.59
2022-09-28T14:59:56.680Z,98284.34
2022-09-28T15:02:31.245Z,98289.69
2022-09-28T15:05:10.314Z,98298.38
2022-09-28T15:07:47.455Z,98301.09
2022-09-28T15:10:27.969Z,98304.22
2022-09-28T15:12:57.082Z,98304.56
2022-09-28T15:15:29.443Z,98296.97
2022-09-28T15:18:27.504Z,98306.16
2022-09-28T15:20:55.803Z,98303.34
2022-09-28T15:23:33.846Z,98311.88
2022-09-28T15:26:02.430Z,98308.09
2022-09-28T15:28:30.361Z,98308.25
2022-09-28T15:31:02.669Z,98303.94
2022-09-28T15:33:50.692Z,98306.13
2022-09-28T15:36:22.326Z,98306.44
2022-09-28T15:38:56.595Z,98316.47
2022-09-28T15:41:25.315Z,98317.84
2022-09-28T15:44:23.644Z,98315.22
2022-09-28T15:46:51.990Z,98322.44
2022-09-28T15:49:34.574Z,98313.66
2022-09-28T15:52:08.287Z,98322.41
2022-09-28T15:54:43.067Z,98324.84
2022-09-28T15:57:30.280Z,98327.66
2022-09-28T15:59:59.204Z,98323.47
2022-09-28T16:02:27.729Z,98325.53
2022-09-28T16:04:58.954Z,98327.59
2022-09-28T16:07:33.197Z,98328.91
2022-09-28T16:10:25.966Z,98328.59
2022-09-28T16:12:56.739Z,98325.09
2022-09-28T16:15:27.482Z,98334.50
2022-09-28T16:17:57.390Z,98331.94
2022-09-28T16:20:31.777Z,98333.81
2022-09-28T16:23:05.821Z,98337.09
2022-09-28T16:25:37.071Z,98337.31
2022-09-28T16:28:25.217Z,98344.03
2022-09-28T16:31:02.236Z,98341.72
2022-09-28T16:33:32.433Z,98341.97
2022-09-28T16:36:05.617Z,98343.00
2022-09-28T16:38:33.197Z,98354.06
2022-09-28T16:41:02.771Z,98353.50
2022-09-28T16:43:34.975Z,98363.47
2022-09-28T16:46:07.073Z,98359.59
2022-09-28T16:48:39.425Z,98358.91
2022-09-28T16:51:08.504Z,98357.34
2022-09-28T16:53:54.532Z,98365.84
2022-09-28T16:56:22.663Z,98363.66
2022-09-28T16:58:50.736Z,98370.63
2022-09-28T17:01:19.775Z,98371.69
2022-09-28T17:03:49.927Z,98371.53
2022-09-28T17:06:20.642Z,98365.09
2022-09-28T17:08:48.367Z,98374.97
2022-09-28T17:13:51.814Z,98376.47
2022-09-28T17:16:32.643Z,98377.88
2022-09-28T17:19:06.684Z,98377.28
2022-09-28T17:21:35.583Z,98388.84
2022-09-28T17:24:03.416Z,98389.44
2022-09-28T17:26:33.513Z,98391.88
2022-09-28T17:29:01.805Z,98406.00
2022-09-28T17:31:30.028Z,98402.75
2022-09-28T17:33:58.213Z,98396.06
2022-09-28T17:36:27.388Z,98398.44
2022-09-28T17:38:57.149Z,98401.53
2022-09-28T17:41:24.780Z,98395.34
2022-09-28T17:43:52.477Z,98404.22
2022-09-28T17:46:28.730Z,98409.59
2022-09-28T17:48:59.311Z,98403.97
2022-09-28T17:51:27.765Z,98405.59
2022-09-28T17:53:57.038Z,98407.97
2022-09-28T17:56:27.544Z,98403.66
2022-09-28T17:59:00.841Z,98397.22
2022-09-28T18:01:33.590Z,98408.41
2022-09-28T18:04:02.034Z,98404.09
2022-09-28T18:06:29.951Z,98409.72
2022-09-28T18:08:58.962Z,98409.38
2022-09-28T18:11:27.161Z,98414.28
2022-09-28T18:13:54.759Z,98414.59
2022-09-28T18:16:22.950Z,98411.41
2022-09-28T18:18:50.818Z,98421.09
2022-09-28T18:21:18.545Z,98411.41
2022-09-28T18:23:46.248Z,98416.03
2022-09-28T18:26:16.716Z,98416.22
2022-09-28T18:28:44.466Z,98419.16
2022-09-28T18:31:14.904Z,98414.84
2022-09-28T18:36:31.272Z,98419.06
2022-09-28T18:39:00.894Z,98424.69
2022-09-28T18:41:30.027Z,98425.13
2022-09-28T18:44:00.650Z,98422.44
2022-09-28T18:46:29.761Z,98430.50
2022-09-28T18:48:57.814Z,98424.06
2022-09-28T18:51:26.401Z,98430.97
2022-09-28T18:53:54.112Z,98423.41
2022-09-28T18:56:22.024Z,98431.97
2022-09-28T18:58:52.583Z,98437.81
2022-09-28T19:01:30.822Z,98437.59
2022-09-28T19:04:00.253Z,98443.69
2022-09-28T19:06:28.122Z,98444.16
2022-09-28T19:08:56.854Z,98445.06
2022-09-28T19:11:25.575Z,98455.31
2022-09-28T19:13:55.902Z,98452.31
2022-09-28T19:16:25.428Z,98459.06
2022-09-28T19:18:53.934Z,98454.25
2022-09-28T19:21:22.088Z,98453.84
2022-09-28T19:23:50.180Z,98451.97
2022-09-28T19:26:20.302Z,98454.19
2022-09-28T19:28:48.578Z,98454.19
2022-09-28T19:31:18.146Z,98462.81
2022-09-28T19:33:46.407Z,98462.41
2022-09-28T19:36:17.189Z,98465.91
2022-09-28T19:38:45.508Z,98470.38
2022-09-28T19:41:39.001Z,98474.63
2022-09-28T19:44:12.997Z,98464.38
2022-09-28T19:46:42.818Z,98471.44
2022-09-28T19:49:12.673Z,98469.31
2022-09-28T19:52:01.752Z,98473.66
2022-09-28T19:54:36.136Z,98472.59
2022-09-28T19:57:07.452Z,98477.28
2022-09-28T19:59:36.409Z,98474.91
2022-09-28T20:02:05.807Z,98485.22
2022-09-28T20:04:33.371Z,98485.84
2022-09-28T20:07:01.911Z,98479.44
2022-09-28T20:09:29.619Z,98486.34
2022-09-28T20:11:57.317Z,98487.41
2022-09-28T20:14:26.502Z,98489.03
2022-09-28T20:16:55.999Z,98494.97
2022-09-28T20:19:25.110Z,98496.75
2022-09-28T20:21:52.750Z,98499.56
2022-09-28T20:24:20.399Z,98500.56
2022-09-28T20:26:49.490Z,98496.00
2022-09-28T20:29:17.462Z,98500.88
2022-09-28T20:31:45.634Z,98502.69
2022-09-28T20:34:15.033Z,98511.56
2022-09-28T20:36:44.486Z,98507.25
2022-09-28T20:39:12.747Z,98517.16
2022-09-28T20:41:41.110Z,98506.91
2022-09-28T20:44:09.840Z,98512.06
2022-09-28T20:46:38.070Z,98521.63
2022-09-28T20:49:07.075Z,98517.88
2022-09-28T20:51:34.724Z,98523.50
2022-09-28T20:54:03.801Z,98522.44
2022-09-28T20:56:37.412Z,98518.47
2022-09-28T20:59:05.854Z,98510.09
2022-09-28T21:01:33.504Z,98525.13
2022-09-28T21:04:02.974Z,98519.41
2022-09-28T21:06:32.525Z,98519.88
2022-09-28T21:09:00.507Z,98524.69
2022-09-28T21:11:30.632Z,98526.31
2022-09-28T21:14:01.608Z,98536.22
2022-09-28T21:16:32.018Z,98530.84
2022-09-28T21:19:00.035Z,98535.75
2022-09-28T21:21:28.075Z,98545.19
2022-09-28T21:23:56.482Z,98545.63
2022-09-28T21:26:25.791Z,98544.81
2022-09-28T21:28:55.737Z,98551.16
2022-09-28T21:31:28.692Z,98547.06
2022-09-28T21:33:57.256Z,98547.28
2022-09-28T21:36:25.409Z,98550.44
2022-09-28T21:38:53.464Z,98547.88
2022-09-28T21:41:21.107Z,98549.63
2022-09-28T21:43:48.665Z,98545.91
2022-09-28T21:46:18.000Z,98547.69
2022-09-28T21:48:45.767Z,98548.13
2022-09-28T21:51:15.563Z,98546.16
2022-09-28T21:53:43.617Z,98538.13
2022-09-28T21:56:13.486Z,98544.88
2022-09-28T21:58:41.588Z,98542.09
2022-09-28T22:01:14.554Z,98536.50
2022-09-28T22:03:45.119Z,98538.59
2022-09-28T22:06:13.235Z,98536.53
2022-09-28T22:08:41.437Z,98542.47
2022-09-28T22:11:12.010Z,98544.56
2022-09-28T22:13:42.221Z,98545.97
2022-09-28T22:16:10.626Z,98545.13
2022-09-28T22:18:38.470Z,98547.47
2022-09-28T22:21:09.767Z,98545.84
2022-09-28T22:23:38.577Z,98548.53
2022-09-28T22:26:09.666Z,98551.94
2022-09-28T22:28:38.010Z,98548.53
2022-09-28T22:31:05.859Z,98550.25
2022-09-28T22:33:34.061Z,98557.19
2022-09-28T22:36:01.952Z,98550.09
2022-09-28T22:38:32.927Z,98550.91
2022-09-28T22:41:01.374Z,98558.22
2022-09-28T22:43:29.079Z,98554.88
2022-09-28T22:46:03.177Z,98563.06
2022-09-28T22:48:30.855Z,98557.03
2022-09-28T22:50:58.485Z,98554.56
2022-09-28T22:53:26.101Z,98562.00
2022-09-28T22:55:55.151Z,98548.25
2022-09-28T22:58:23.455Z,98552.28
2022-09-28T23:00:51.174Z,98549.03
2022-09-28T23:03:19.094Z,98549.81
2022-09-28T23:05:53.914Z,98548.03
2022-09-28T23:08:22.347Z,98551.97
2022-09-28T23:10:50.013Z,98545.06
2022-09-28T23:13:19.760Z,98546.13
2022-09-28T23:15:55.834Z,98543.97
2022-09-28T23:18:23.913Z,98542.56
2022-09-28T23:20:55.146Z,98546.59
2022-09-28T23:23:25.956Z,98552.22
2022-09-28T23:25:54.035Z,98544.19
2022-09-28T23:28:24.795Z,98549.56
2022-09-28T23:30:52.711Z,98547.34
2022-09-28T23:33:22.449Z,98546.16
2022-09-28T23:35:52.672Z,98543.53
2022-09-28T23:38:20.249Z,98547.63
2022-09-28T23:40:48.398Z,98553.38
2022-09-28T23:43:16.097Z,98548.75
2022-09-28T23:45:45.493Z,98547.78
2022-09-28T23:48:14.767Z,98548.38
2022-09-28T23:50:42.570Z,98547.19
2022-09-28T23:53:10.733Z,98554.63
2022-09-28T23:55:38.389Z,98551.78
2022-09-28T23:58:06.110Z,98550.00
